sensor_id;sensor_type;location;lat;lon;timestamp;pressure;altitude;pressure_sealevel;temperature;humidity
76052;BME280;64751;48.708;9.710;2023-08-31T14:32:45;97376.72;;;17.75;55.99
76052;BME280;64751;48.708;9.710;2023-08-31T14:35:12;97383.59;;;17.76;56.15
76052;BME280;64751;48.708;9.710;2023-08-31T14:37:40;97382.63;;;17.80;60.60
76052;BME280;64751;48.708;9.710;2023-08-31T14:40:08;97388.31;;;17.79;56.06
76052;BME280;64751;48.708;9.710;2023-08-31T14:42:36;97389.88;;;17.80;59.14
76052;BME280;64751;48.708;9.710;2023-08-31T14:45:05;97381.88;;;17.80;58.28
76052;BME280;64751;48.708;9.710;2023-08-31T14:47:32;97384.91;;;17.90;59.39
76052;BME280;64751;48.708;9.710;2023-08-31T14:50:01;97383.66;;;17.88;58.25
76052;BME280;64751;48.708;9.710;2023-08-31T14:52:30;97382.63;;;17.80;58.71
76052;BME280;64751;48.708;9.710;2023-08-31T14:54:59;97380.81;;;17.72;58.84
76052;BME280;64751;48.708;9.710;2023-08-31T14:57:27;97381.16;;;17.71;61.14
76052;BME280;64751;48.708;9.710;2023-08-31T14:59:55;97384.91;;;17.70;61.88
76052;BME280;64751;48.708;9.710;2023-08-31T15:02:24;97389.16;;;17.71;60.40
76052;BME280;64751;48.708;9.710;2023-08-31T15:04:52;97396.38;;;17.70;59.83
76052;BME280;64751;48.708;9.710;2023-08-31T15:07:21;97395.25;;;17.71;62.22
76052;BME280;64751;48.708;9.710;2023-08-31T15:09:48;97393.72;;;17.70;61.98
76052;BME280;64751;48.708;9.710;2023-08-31T15:12:16;97390.25;;;17.70;58.34
76052;BME280;64751;48.708;9.710;2023-08-31T15:14:44;97400.16;;;17.69;58.92
76052;BME280;64751;48.708;9.710;2023-08-31T15:17:11;97394.94;;;17.73;60.06
76052;BME280;64751;48.708;9.710;2023-08-31T15:19:39;97404.31;;;17.79;62.22
76052;BME280;64751;48.708;9.710;2023-08-31T15:22:06;97404.00;;;17.80;63.19
76052;BME280;64751;48.708;9.710;2023-08-31T15:24:35;97414.38;;;17.82;65.50
76052;BME280;64751;48.708;9.710;2023-08-31T15:27:03;97420.47;;;17.82;62.92
76052;BME280;64751;48.708;9.710;2023-08-31T15:29:31;97412.00;;;17.80;62.21
76052;BME280;64751;48.708;9.710;2023-08-31T15:32:00;97412.78;;;17.81;63.69
76052;BME280;64751;48.708;9.710;2023-08-31T15:34:27;97409.56;;;17.75;64.84
76052;BME280;64751;48.708;9.710;2023-08-31T15:36:55;97411.75;;;17.73;64.76
76052;BME280;64751;48.708;9.710;2023-08-31T15:39:22;97416.31;;;17.73;66.16
76052;BME280;64751;48.708;9.710;2023-08-31T15:41:51;97418.72;;;17.66;65.56
76052;BME280;64751;48.708;9.710;2023-08-31T15:44:19;97414.47;;;17.65;64.82
76052;BME280;64751;48.708;9.710;2023-08-31T15:46:46;97420.59;;;17.65;67.46
76052;BME280;64751;48.708;9.710;2023-08-31T15:49:14;97410.72;;;17.66;65.93
76052;BME280;64751;48.708;9.710;2023-08-31T15:51:41;97420.72;;;17.69;67.54
76052;BME280;64751;48.708;9.710;2023-08-31T15:54:09;97419.19;;;17.68;65.64
76052;BME280;64751;48.708;9.710;2023-08-31T15:56:37;97420.59;;;17.65;63.15
76052;BME280;64751;48.708;9.710;2023-08-31T15:59:05;97417.16;;;17.65;61.76
76052;BME280;64751;48.708;9.710;2023-08-31T16:01:33;97409.13;;;17.65;63.25
76052;BME280;64751;48.708;9.710;2023-08-31T16:04:02;97413.69;;;17.64;64.66
76052;BME280;64751;48.708;9.710;2023-08-31T16:06:30;97411.53;;;17.58;64.79
76052;BME280;64751;48.708;9.710;2023-08-31T16:08:57;97410.94;;;17.52;67.02
76052;BME280;64751;48.708;9.710;2023-08-31T16:11:25;97415.81;;;17.50;66.66
76052;BME280;64751;48.708;9.710;2023-08-31T16:13:53;97416.44;;;17.47;68.19
76052;BME280;64751;48.708;9.710;2023-08-31T16:16:24;97419.00;;;17.44;69.94
76052;BME280;64751;48.708;9.710;2023-08-31T16:18:52;97417.28;;;17.39;71.79
76052;BME280;64751;48.708;9.710;2023-08-31T16:21:19;97406.88;;;17.46;72.71
76052;BME280;64751;48.708;9.710;2023-08-31T16:23:47;97415.78;;;17.59;72.01
76052;BME280;64751;48.708;9.710;2023-08-31T16:26:14;97423.88;;;17.71;72.24
76052;BME280;64751;48.708;9.710;2023-08-31T16:28:42;97418.72;;;17.66;70.27
76052;BME280;64751;48.708;9.710;2023-08-31T16:31:09;97407.94;;;17.54;72.37
76052;BME280;64751;48.708;9.710;2023-08-31T16:33:39;97407.38;;;17.39;72.01
76052;BME280;64751;48.708;9.710;2023-08-31T16:36:06;97411.66;;;17.32;71.30
76052;BME280;64751;48.708;9.710;2023-08-31T16:38:34;97413.16;;;17.21;72.05
76052;BME280;64751;48.708;9.710;2023-08-31T16:41:01;97415.84;;;17.12;72.66
76052;BME280;64751;48.708;9.710;2023-08-31T16:43:29;97415.09;;;17.03;71.13
76052;BME280;64751;48.708;9.710;2023-08-31T16:46:00;97419.38;;;16.96;71.91
76052;BME280;64751;48.708;9.710;2023-08-31T16:48:27;97418.44;;;16.92;72.61
76052;BME280;64751;48.708;9.710;2023-08-31T16:50:56;97421.28;;;16.87;73.34
76052;BME280;64751;48.708;9.710;2023-08-31T16:53:24;97426.03;;;16.81;72.22
76052;BME280;64751;48.708;9.710;2023-08-31T16:55:51;97421.66;;;16.77;71.69
76052;BME280;64751;48.708;9.710;2023-08-31T16:58:19;97421.47;;;16.73;71.26
76052;BME280;64751;48.708;9.710;2023-08-31T17:00:46;97427.78;;;16.68;72.85
76052;BME280;64751;48.708;9.710;2023-08-31T17:03:14;97421.19;;;16.66;75.87
76052;BME280;64751;48.708;9.710;2023-08-31T17:05:41;97421.84;;;16.63;77.36
76052;BME280;64751;48.708;9.710;2023-08-31T17:08:10;97425.13;;;16.60;78.05
76052;BME280;64751;48.708;9.710;2023-08-31T17:10:38;97433.28;;;16.55;78.13
76052;BME280;64751;48.708;9.710;2023-08-31T17:13:06;97434.25;;;16.50;79.06
76052;BME280;64751;48.708;9.710;2023-08-31T17:15:34;97439.41;;;16.47;80.90
76052;BME280;64751;48.708;9.710;2023-08-31T17:18:01;97435.81;;;16.43;81.77
76052;BME280;64751;48.708;9.710;2023-08-31T17:20:29;97429.50;;;16.39;83.96
76052;BME280;64751;48.708;9.710;2023-08-31T17:22:57;97423.59;;;16.33;83.76
76052;BME280;64751;48.708;9.710;2023-08-31T17:25:27;97431.41;;;16.30;85.13
76052;BME280;64751;48.708;9.710;2023-08-31T17:27:55;97430.81;;;16.24;83.35
76052;BME280;64751;48.708;9.710;2023-08-31T17:30:22;97421.09;;;16.20;82.87
76052;BME280;64751;48.708;9.710;2023-08-31T17:32:50;97428.16;;;16.16;83.62
76052;BME280;64751;48.708;9.710;2023-08-31T17:35:18;97430.97;;;16.11;83.44
76052;BME280;64751;48.708;9.710;2023-08-31T17:37:45;97414.66;;;16.04;84.05
76052;BME280;64751;48.708;9.710;2023-08-31T17:40:13;97429.09;;;16.03;84.08
76052;BME280;64751;48.708;9.710;2023-08-31T17:42:42;97429.72;;;16.00;84.00
76052;BME280;64751;48.708;9.710;2023-08-31T17:45:10;97425.19;;;15.91;84.85
76052;BME280;64751;48.708;9.710;2023-08-31T17:47:38;97427.06;;;15.91;85.11
76052;BME280;64751;48.708;9.710;2023-08-31T17:50:06;97442.56;;;15.89;84.09
76052;BME280;64751;48.708;9.710;2023-08-31T17:52:33;97443.50;;;15.84;83.62
76052;BME280;64751;48.708;9.710;2023-08-31T17:55:02;97440.38;;;15.82;84.21
76052;BME280;64751;48.708;9.710;2023-08-31T17:57:29;97445.50;;;15.79;84.56
76052;BME280;64751;48.708;9.710;2023-08-31T17:59:59;97445.38;;;15.75;85.23
76052;BME280;64751;48.708;9.710;2023-08-31T18:02:34;97442.53;;;15.72;85.98
76052;BME280;64751;48.708;9.710;2023-08-31T18:05:03;97448.03;;;15.67;85.41
76052;BME280;64751;48.708;9.710;2023-08-31T18:07:30;97444.72;;;15.61;85.93
76052;BME280;64751;48.708;9.710;2023-08-31T18:09:58;97449.56;;;15.59;86.65
76052;BME280;64751;48.708;9.710;2023-08-31T18:12:25;97453.78;;;15.60;87.74
76052;BME280;64751;48.708;9.710;2023-08-31T18:14:53;97450.66;;;15.58;88.52
76052;BME280;64751;48.708;9.710;2023-08-31T18:17:23;97445.97;;;15.55;89.30
76052;BME280;64751;48.708;9.710;2023-08-31T18:19:52;97444.38;;;15.54;90.10
76052;BME280;64751;48.708;9.710;2023-08-31T18:22:19;97446.56;;;15.52;89.68
76052;BME280;64751;48.708;9.710;2023-08-31T18:24:47;97454.88;;;15.51;88.93
76052;BME280;64751;48.708;9.710;2023-08-31T18:27:15;97449.38;;;15.47;88.63
76052;BME280;64751;48.708;9.710;2023-08-31T18:29:42;97459.53;;;15.45;89.66
76052;BME280;64751;48.708;9.710;2023-08-31T18:32:10;97457.50;;;15.42;89.63
76052;BME280;64751;48.708;9.710;2023-08-31T18:34:39;97459.03;;;15.43;89.56
76052;BME280;64751;48.708;9.710;2023-08-31T18:37:07;97464.97;;;15.40;88.78
76052;BME280;64751;48.708;9.710;2023-08-31T18:39:34;97469.81;;;15.38;89.04
76052;BME280;64751;48.708;9.710;2023-08-31T18:42:02;97471.84;;;15.33;89.62
76052;BME280;64751;48.708;9.710;2023-08-31T18:44:30;97477.31;;;15.27;90.06
76052;BME280;64751;48.708;9.710;2023-08-31T18:46:57;97477.63;;;15.26;89.33
76052;BME280;64751;48.708;9.710;2023-08-31T18:49:25;97475.88;;;15.21;89.99
76052;BME280;64751;48.708;9.710;2023-08-31T18:51:54;97478.53;;;15.21;89.79
76052;BME280;64751;48.708;9.710;2023-08-31T18:54:21;97480.88;;;15.23;89.96
76052;BME280;64751;48.708;9.710;2023-08-31T18:56:49;97480.09;;;15.22;90.34
76052;BME280;64751;48.708;9.710;2023-08-31T18:59:17;97484.16;;;15.20;90.21
76052;BME280;64751;48.708;9.710;2023-08-31T19:01:44;97484.78;;;15.17;90.56
76052;BME280;64751;48.708;9.710;2023-08-31T19:04:12;97496.03;;;15.14;89.92
76052;BME280;64751;48.708;9.710;2023-08-31T19:06:40;97495.06;;;15.10;89.27
76052;BME280;64751;48.708;9.710;2023-08-31T19:09:09;97502.25;;;15.09;90.06
76052;BME280;64751;48.708;9.710;2023-08-31T19:11:37;97498.34;;;15.07;90.56
76052;BME280;64751;48.708;9.710;2023-08-31T19:14:04;97491.16;;;15.07;91.34
76052;BME280;64751;48.708;9.710;2023-08-31T19:16:32;97497.53;;;15.06;90.48
76052;BME280;64751;48.708;9.710;2023-08-31T19:19:01;97505.38;;;15.03;91.39
76052;BME280;64751;48.708;9.710;2023-08-31T19:21:30;97504.88;;;15.01;91.38
76052;BME280;64751;48.708;9.710;2023-08-31T19:23:57;97510.69;;;15.03;91.81
76052;BME280;64751;48.708;9.710;2023-08-31T19:26:26;97517.06;;;15.02;91.88
76052;BME280;64751;48.708;9.710;2023-08-31T19:28:54;97509.59;;;15.04;92.92
76052;BME280;64751;48.708;9.710;2023-08-31T19:31:22;97515.41;;;15.06;91.38
76052;BME280;64751;48.708;9.710;2023-08-31T19:33:51;97507.09;;;15.07;91.69
76052;BME280;64751;48.708;9.710;2023-08-31T19:36:19;97507.41;;;15.06;92.77
76052;BME280;64751;48.708;9.710;2023-08-31T19:38:46;97511.47;;;15.03;93.63
76052;BME280;64751;48.708;9.710;2023-08-31T19:41:14;97514.59;;;15.05;93.88
76052;BME280;64751;48.708;9.710;2023-08-31T19:43:44;97520.84;;;15.01;93.91
76052;BME280;64751;48.708;9.710;2023-08-31T19:46:11;97515.84;;;14.99;93.36
76052;BME280;64751;48.708;9.710;2023-08-31T19:48:39;97527.88;;;14.97;94.44
76052;BME280;64751;48.708;9.710;2023-08-31T19:51:07;97514.56;;;14.97;93.63
76052;BME280;64751;48.708;9.710;2023-08-31T19:53:35;97524.41;;;14.96;94.00
76052;BME280;64751;48.708;9.710;2023-08-31T19:56:03;97519.69;;;14.93;94.15
76052;BME280;64751;48.708;9.710;2023-08-31T19:58:31;97513.63;;;14.93;94.05
76052;BME280;64751;48.708;9.710;2023-08-31T20:01:01;97517.34;;;14.92;93.81
76052;BME280;64751;48.708;9.710;2023-08-31T20:03:29;97500.91;;;14.90;93.26
76052;BME280;64751;48.708;9.710;2023-08-31T20:05:58;97502.47;;;14.91;93.37
76052;BME280;64751;48.708;9.710;2023-08-31T20:08:28;97509.69;;;14.90;93.79
76052;BME280;64751;48.708;9.710;2023-08-31T20:10:55;97505.75;;;14.88;93.87
76052;BME280;64751;48.708;9.710;2023-08-31T20:13:23;97508.53;;;14.83;94.89
76052;BME280;64751;48.708;9.710;2023-08-31T20:15:50;97510.13;;;14.84;95.06
76052;BME280;64751;48.708;9.710;2023-08-31T20:18:19;97511.66;;;14.85;94.30
76052;BME280;64751;48.708;9.710;2023-08-31T20:20:47;97513.06;;;14.82;95.71
76052;BME280;64751;48.708;9.710;2023-08-31T20:23:15;97517.41;;;14.78;94.51
76052;BME280;64751;48.708;9.710;2023-08-31T20:25:42;97516.94;;;14.76;95.84
76052;BME280;64751;48.708;9.710;2023-08-31T20:28:10;97509.56;;;14.73;95.72
76052;BME280;64751;48.708;9.710;2023-08-31T20:30:37;97515.66;;;14.74;96.12
76052;BME280;64751;48.708;9.710;2023-08-31T20:33:05;97522.09;;;14.73;96.42
76052;BME280;64751;48.708;9.710;2023-08-31T20:35:36;97522.84;;;14.73;96.32
76052;BME280;64751;48.708;9.710;2023-08-31T20:38:04;97517.38;;;14.70;95.16
76052;BME280;64751;48.708;9.710;2023-08-31T20:40:36;97518.28;;;14.65;95.82
76052;BME280;64751;48.708;9.710;2023-08-31T20:43:05;97522.00;;;14.64;96.45
76052;BME280;64751;48.708;9.710;2023-08-31T20:45:33;97520.16;;;14.65;96.01
76052;BME280;64751;48.708;9.710;2023-08-31T20:48:02;97525.78;;;14.63;96.13
76052;BME280;64751;48.708;9.710;2023-08-31T20:50:30;97527.16;;;14.61;96.62
76052;BME280;64751;48.708;9.710;2023-08-31T20:52:59;97520.72;;;14.62;96.92
76052;BME280;64751;48.708;9.710;2023-08-31T20:55:27;97516.03;;;14.59;97.26
76052;BME280;64751;48.708;9.710;2023-08-31T20:57:55;97529.22;;;14.64;97.94
76052;BME280;64751;48.708;9.710;2023-08-31T21:00:23;97525.28;;;14.61;96.50
76052;BME280;64751;48.708;9.710;2023-08-31T21:02:51;97532.84;;;14.68;95.90
76052;BME280;64751;48.708;9.710;2023-08-31T21:05:20;97529.56;;;14.71;95.98
76052;BME280;64751;48.708;9.710;2023-08-31T21:07:47;97532.22;;;14.71;95.22
76052;BME280;64751;48.708;9.710;2023-08-31T21:10:16;97527.69;;;14.71;95.61
76052;BME280;64751;48.708;9.710;2023-08-31T21:12:44;97529.28;;;14.72;94.29
76052;BME280;64751;48.708;9.710;2023-08-31T21:15:12;97527.41;;;14.73;94.96
76052;BME280;64751;48.708;9.710;2023-08-31T21:17:39;97529.75;;;14.74;94.92
76052;BME280;64751;48.708;9.710;2023-08-31T21:20:07;97526.31;;;14.74;95.81
76052;BME280;64751;48.708;9.710;2023-08-31T21:22:35;97521.31;;;14.72;95.19
76052;BME280;64751;48.708;9.710;2023-08-31T21:25:03;97522.09;;;14.73;95.22
76052;BME280;64751;48.708;9.710;2023-08-31T21:27:32;97529.56;;;14.71;95.55
76052;BME280;64751;48.708;9.710;2023-08-31T21:30:00;97529.56;;;14.71;95.76
76052;BME280;64751;48.708;9.710;2023-08-31T21:32:27;97535.97;;;14.70;96.54
76052;BME280;64751;48.708;9.710;2023-08-31T21:34:57;97540.34;;;14.66;96.30
76052;BME280;64751;48.708;9.710;2023-08-31T21:37:24;97537.38;;;14.67;96.72
76052;BME280;64751;48.708;9.710;2023-08-31T21:39:52;97550.97;;;14.66;97.04
76052;BME280;64751;48.708;9.710;2023-08-31T21:42:19;97554.09;;;14.68;96.48
76052;BME280;64751;48.708;9.710;2023-08-31T21:44:48;97539.44;;;14.70;96.15
76052;BME280;64751;48.708;9.710;2023-08-31T21:47:16;97535.97;;;14.70;96.50
76052;BME280;64751;48.708;9.710;2023-08-31T21:49:43;97545.72;;;14.74;97.37
76052;BME280;64751;48.708;9.710;2023-08-31T21:52:11;97544.91;;;14.74;96.67
76052;BME280;64751;48.708;9.710;2023-08-31T21:54:38;97542.84;;;14.71;96.08
76052;BME280;64751;48.708;9.710;2023-08-31T21:57:06;97538.81;;;14.73;95.38
76052;BME280;64751;48.708;9.710;2023-08-31T21:59:34;97542.25;;;14.74;96.57
